createdAt,value
2019-02-25T00:00:50.659Z,8.63
2019-02-25T00:03:18.817Z,5.55
2019-02-25T00:05:47.057Z,6.55
2019-02-25T00:08:15.270Z,6.05
2019-02-25T00:10:43.451Z,9.85
2019-02-25T00:13:11.741Z,6.03
2019-02-25T00:15:40.121Z,5.78
2019-02-25T00:18:08.262Z,7.08
2019-02-25T00:20:36.525Z,6.78
2019-02-25T00:23:04.857Z,6.75
2019-02-25T00:25:32.984Z,5.97
2019-02-25T00:28:01.472Z,5.83
2019-02-25T00:30:29.618Z,5.72
2019-02-25T00:32:57.834Z,7.45
2019-02-25T00:35:25.898Z,5.67
2019-02-25T00:37:54.106Z,5.55
2019-02-25T00:40:22.304Z,4.65
2019-02-25T00:42:50.436Z,6.15
2019-02-25T00:45:18.694Z,5.90
2019-02-25T00:47:47.014Z,6.17
2019-02-25T00:50:15.241Z,4.42
2019-02-25T00:52:43.537Z,6.87
2019-02-25T00:55:11.932Z,6.08
2019-02-25T00:57:40.080Z,7.90
2019-02-25T01:00:11.082Z,7.37
2019-02-25T01:02:39.195Z,5.62
2019-02-25T01:05:07.723Z,5.10
2019-02-25T01:07:35.837Z,4.95
2019-02-25T01:10:04.702Z,7.37
2019-02-25T01:12:32.840Z,7.72
2019-02-25T01:15:01.023Z,5.92
2019-02-25T01:17:29.295Z,7.45
2019-02-25T01:19:57.448Z,7.50
2019-02-25T01:22:25.615Z,6.42
2019-02-25T01:24:53.826Z,7.17
2019-02-25T01:27:22.271Z,6.65
2019-02-25T01:29:50.378Z,6.08
2019-02-25T01:32:18.601Z,7.25
2019-02-25T01:34:46.783Z,7.62
2019-02-25T01:37:14.889Z,5.62
2019-02-25T01:39:43.322Z,5.30
2019-02-25T01:42:11.514Z,5.62
2019-02-25T01:44:39.675Z,7.10
2019-02-25T01:47:07.929Z,7.28
2019-02-25T01:49:36.148Z,6.37
2019-02-25T01:52:04.292Z,8.23
2019-02-25T01:54:32.491Z,6.67
2019-02-25T01:57:00.690Z,6.55
2019-02-25T01:59:28.905Z,7.15
2019-02-25T02:01:57.089Z,9.60
2019-02-25T02:04:25.289Z,9.53
2019-02-25T02:06:53.439Z,13.50
2019-02-25T02:09:21.600Z,10.13
2019-02-25T02:11:49.801Z,6.10
2019-02-25T02:14:18.063Z,6.78
2019-02-25T02:16:46.242Z,7.28
2019-02-25T02:19:14.659Z,5.50
2019-02-25T02:21:42.847Z,5.47
2019-02-25T02:24:11.085Z,8.98
2019-02-25T02:26:39.266Z,5.42
2019-02-25T02:29:07.491Z,11.43
2019-02-25T02:31:35.674Z,7.50
2019-02-25T02:34:03.817Z,6.05
2019-02-25T02:36:32.039Z,4.30
2019-02-25T02:39:00.196Z,6.58
2019-02-25T02:41:28.400Z,4.25
2019-02-25T02:43:56.546Z,9.28
2019-02-25T02:46:52.589Z,5.78
2019-02-25T02:49:20.797Z,5.22
2019-02-25T02:51:48.980Z,8.63
2019-02-25T02:54:17.332Z,5.67
2019-02-25T02:56:45.488Z,9.08
2019-02-25T02:59:13.636Z,10.08
2019-02-25T03:01:41.983Z,7.55
2019-02-25T03:04:10.143Z,10.53
2019-02-25T03:06:38.386Z,5.92
2019-02-25T03:11:55.737Z,10.53
2019-02-25T03:14:23.842Z,7.83
2019-02-25T03:16:52.103Z,11.18
2019-02-25T03:19:20.285Z,6.25
2019-02-25T03:21:48.547Z,8.58
2019-02-25T03:24:16.823Z,5.67
2019-02-25T03:26:45.077Z,5.08
2019-02-25T03:29:13.296Z,10.08
2019-02-25T03:31:41.426Z,8.03
2019-02-25T03:34:09.596Z,7.70
2019-02-25T03:36:37.777Z,5.22
2019-02-25T03:39:07.261Z,5.65
2019-02-25T03:41:35.408Z,9.30
2019-02-25T03:44:03.637Z,7.47
2019-02-25T03:46:31.782Z,6.22
2019-02-25T03:48:59.921Z,10.53
2019-02-25T03:51:28.213Z,5.62
2019-02-25T03:53:56.389Z,5.40
2019-02-25T03:56:24.541Z,6.60
2019-02-25T03:58:52.718Z,6.53
2019-02-25T04:01:20.869Z,4.03
2019-02-25T04:03:49.215Z,6.95
2019-02-25T04:06:17.439Z,4.75
2019-02-25T04:08:45.559Z,4.90
2019-02-25T04:11:13.784Z,7.72
2019-02-25T04:13:41.943Z,11.70
2019-02-25T04:16:10.102Z,11.93
2019-02-25T04:18:38.295Z,5.45
2019-02-25T04:21:06.621Z,5.78
2019-02-25T04:23:34.796Z,6.15
2019-02-25T04:26:03.101Z,4.83
2019-02-25T04:28:31.193Z,6.05
2019-02-25T04:30:59.371Z,10.00
2019-02-25T04:33:27.542Z,6.25
2019-02-25T04:35:55.677Z,6.33
2019-02-25T04:38:23.815Z,6.30
2019-02-25T04:40:52.036Z,8.55
2019-02-25T04:43:20.327Z,6.08
2019-02-25T04:45:48.485Z,6.20
2019-02-25T04:48:16.680Z,5.87
2019-02-25T04:50:44.860Z,7.10
2019-02-25T04:53:13.183Z,8.20
2019-02-25T04:55:41.339Z,6.70
2019-02-25T04:58:09.542Z,12.50
2019-02-25T05:00:37.754Z,7.65
2019-02-25T05:03:05.849Z,11.20
2019-02-25T05:05:34.029Z,12.68
2019-02-25T05:08:02.139Z,5.83
2019-02-25T05:10:30.386Z,11.78
2019-02-25T05:13:03.227Z,6.55
2019-02-25T05:15:31.790Z,6.80
2019-02-25T05:17:59.974Z,7.08
2019-02-25T05:20:28.113Z,7.30
2019-02-25T05:22:56.288Z,8.80
2019-02-25T05:25:24.410Z,11.78
2019-02-25T05:27:52.617Z,9.60
2019-02-25T05:30:20.702Z,9.98
2019-02-25T05:32:48.906Z,11.40
2019-02-25T05:35:16.992Z,9.23
2019-02-25T05:37:45.139Z,7.12
2019-02-25T05:40:14.879Z,8.05
2019-02-25T05:42:43.266Z,6.28
2019-02-25T05:45:11.653Z,7.22
2019-02-25T05:47:39.839Z,7.08
2019-02-25T05:50:10.089Z,8.45
2019-02-25T05:52:38.277Z,7.47
2019-02-25T05:55:07.934Z,8.40
2019-02-25T05:57:36.135Z,9.38
2019-02-25T06:00:04.809Z,5.50
2019-02-25T06:02:33.119Z,6.50
2019-02-25T06:05:21.273Z,7.37
2019-02-25T06:07:49.663Z,7.45
2019-02-25T06:10:17.842Z,14.47
2019-02-25T06:12:46.039Z,10.18
2019-02-25T06:15:14.908Z,8.58
2019-02-25T06:17:43.010Z,9.65
2019-02-25T06:20:11.883Z,9.18
2019-02-25T06:22:40.091Z,9.18
2019-02-25T06:25:08.567Z,7.90
2019-02-25T06:27:36.768Z,11.50
2019-02-25T06:30:06.043Z,6.33
2019-02-25T06:32:34.216Z,10.75
2019-02-25T06:35:02.338Z,6.37
2019-02-25T06:37:30.524Z,7.40
2019-02-25T06:39:58.678Z,10.23
2019-02-25T06:42:27.026Z,7.70
2019-02-25T06:44:55.269Z,14.03
2019-02-25T06:47:23.438Z,8.20
2019-02-25T06:49:51.691Z,6.95
2019-02-25T06:52:20.215Z,11.83
2019-02-25T06:54:48.415Z,9.33
2019-02-25T06:57:16.658Z,7.28
2019-02-25T06:59:44.864Z,15.75
2019-02-25T07:02:13.097Z,8.05
2019-02-25T07:04:48.809Z,9.43
2019-02-25T07:07:35.977Z,9.50
2019-02-25T07:10:22.013Z,8.65
2019-02-25T07:13:06.277Z,14.30
2019-02-25T07:15:53.419Z,8.83
2019-02-25T07:18:40.719Z,13.68
2019-02-25T07:21:26.786Z,13.15
2019-02-25T07:24:16.772Z,14.93
2019-02-25T07:27:07.138Z,19.63
2019-02-25T07:29:54.270Z,17.00
2019-02-25T07:32:39.412Z,18.55
2019-02-25T07:35:16.527Z,15.83
2019-02-25T07:38:16.294Z,16.90
2019-02-25T07:41:09.609Z,16.95
2019-02-25T07:44:05.722Z,21.35
2019-02-25T07:46:47.503Z,14.00
2019-02-25T07:49:37.827Z,17.30
2019-02-25T07:52:33.846Z,13.93
2019-02-25T07:55:21.074Z,11.48
2019-02-25T07:57:58.935Z,15.80
2019-02-25T08:00:46.152Z,12.40
2019-02-25T08:03:48.304Z,20.32
2019-02-25T08:06:31.723Z,15.53
2019-02-25T08:09:18.743Z,13.45
2019-02-25T08:11:58.962Z,11.40
2019-02-25T08:14:48.999Z,11.55
2019-02-25T08:17:34.837Z,11.60
2019-02-25T08:20:19.557Z,14.45
2019-02-25T08:23:06.892Z,13.10
2019-02-25T08:25:44.920Z,11.93
2019-02-25T08:28:32.601Z,11.83
2019-02-25T08:31:18.586Z,14.18
2019-02-25T08:34:18.134Z,10.65
2019-02-25T08:37:42.630Z,14.80
2019-02-25T08:40:40.042Z,16.75
2019-02-25T08:43:42.814Z,14.73
2019-02-25T08:46:33.043Z,16.60
2019-02-25T08:49:04.840Z,14.35
2019-02-25T08:51:32.990Z,19.92
2019-02-25T08:54:01.207Z,28.95
2019-02-25T08:56:29.436Z,22.27
2019-02-25T08:58:57.582Z,16.30
2019-02-25T09:01:25.809Z,22.13
2019-02-25T09:03:54.003Z,16.87
2019-02-25T09:06:22.221Z,18.65
2019-02-25T09:08:50.424Z,16.90
2019-02-25T09:11:18.625Z,10.32
2019-02-25T09:13:46.765Z,11.48
2019-02-25T09:16:15.009Z,9.43
2019-02-25T09:18:43.141Z,11.50
2019-02-25T09:21:11.460Z,13.03
2019-02-25T09:23:39.563Z,8.30
2019-02-25T09:26:07.675Z,9.40
2019-02-25T09:28:35.855Z,9.58
2019-02-25T09:31:05.629Z,8.70
2019-02-25T09:33:33.953Z,9.38
2019-02-25T09:36:02.138Z,8.58
2019-02-25T09:38:30.358Z,10.15
2019-02-25T09:40:58.629Z,7.10
2019-02-25T09:43:27.167Z,7.05
2019-02-25T09:45:55.353Z,9.85
2019-02-25T09:48:23.757Z,11.40
2019-02-25T09:50:51.971Z,6.10
2019-02-25T09:53:20.220Z,7.90
2019-02-25T09:55:48.378Z,8.05
2019-02-25T09:58:16.665Z,10.53
2019-02-25T10:00:46.161Z,8.10
2019-02-25T10:03:14.461Z,10.87
2019-02-25T10:05:42.789Z,10.68
2019-02-25T10:08:11.129Z,9.78
2019-02-25T10:10:39.367Z,8.43
2019-02-25T10:13:07.591Z,7.22
2019-02-25T10:15:35.815Z,7.60
2019-02-25T10:18:04.110Z,8.55
2019-02-25T10:20:32.282Z,5.12
2019-02-25T10:23:00.637Z,5.47
2019-02-25T10:25:28.929Z,7.83
2019-02-25T10:27:57.161Z,6.47
2019-02-25T10:30:25.363Z,5.55
2019-02-25T10:32:53.530Z,5.80
2019-02-25T10:35:21.792Z,8.13
2019-02-25T10:37:49.969Z,7.87
2019-02-25T10:40:22.164Z,5.53
2019-02-25T10:42:48.121Z,8.48
2019-02-25T10:45:17.198Z,7.70
2019-02-25T10:47:46.608Z,5.90
2019-02-25T10:50:15.972Z,9.28
2019-02-25T10:52:44.923Z,7.95
2019-02-25T10:55:17.913Z,6.85
2019-02-25T10:57:46.181Z,7.10
2019-02-25T11:00:15.732Z,6.72
2019-02-25T11:02:44.626Z,3.90
2019-02-25T11:05:14.047Z,8.35
2019-02-25T11:07:42.199Z,5.83
2019-02-25T11:10:18.267Z,5.78
2019-02-25T11:12:46.559Z,7.97
2019-02-25T11:15:16.017Z,5.65
2019-02-25T11:17:45.542Z,5.58
2019-02-25T11:20:14.338Z,7.47
2019-02-25T11:22:44.071Z,5.90
2019-02-25T11:25:12.667Z,7.33
2019-02-25T11:27:40.965Z,10.60
2019-02-25T11:30:11.966Z,7.03
2019-02-25T11:32:40.006Z,6.65
2019-02-25T11:35:10.691Z,5.12
2019-02-25T11:37:38.613Z,4.87
2019-02-25T11:40:08.197Z,8.23
2019-02-25T11:42:36.365Z,9.13
2019-02-25T11:45:05.421Z,5.35
2019-02-25T11:47:34.037Z,3.90
2019-02-25T11:50:02.233Z,5.03
2019-02-25T11:52:30.446Z,5.80
2019-02-25T11:54:58.720Z,4.92
2019-02-25T11:57:27.009Z,3.60
2019-02-25T11:59:55.211Z,3.67
2019-02-25T12:02:25.992Z,3.83
2019-02-25T12:04:53.399Z,5.22
2019-02-25T12:07:21.914Z,3.50
2019-02-25T12:09:50.098Z,3.85
2019-02-25T12:12:18.426Z,3.62
2019-02-25T12:14:46.593Z,3.77
2019-02-25T12:17:14.757Z,4.62
2019-02-25T12:19:42.934Z,1.02
2019-02-25T12:22:11.147Z,3.17
2019-02-25T12:24:39.353Z,3.75
2019-02-25T12:27:07.826Z,2.22
2019-02-25T12:29:36.129Z,3.05
2019-02-25T12:32:04.643Z,2.67
2019-02-25T12:34:32.821Z,1.37
2019-02-25T12:37:01.217Z,1.75
2019-02-25T12:39:29.464Z,2.75
2019-02-25T12:41:57.676Z,1.15
2019-02-25T12:44:26.221Z,1.52
2019-02-25T12:46:54.391Z,2.33
2019-02-25T12:49:22.677Z,2.45
2019-02-25T12:51:50.783Z,1.67
2019-02-25T12:54:19.100Z,2.60
2019-02-25T12:56:47.494Z,1.95
2019-02-25T12:59:15.695Z,2.12
2019-02-25T13:01:43.881Z,1.10
2019-02-25T13:04:12.050Z,1.17
2019-02-25T13:06:40.338Z,1.05
2019-02-25T13:09:13.468Z,2.17
2019-02-25T13:11:41.682Z,1.22
2019-02-25T13:14:09.859Z,1.30
2019-02-25T13:16:38.150Z,1.35
2019-02-25T13:19:06.379Z,1.72
2019-02-25T13:21:34.706Z,1.12
2019-02-25T13:24:04.607Z,3.33
2019-02-25T13:26:33.997Z,0.70
2019-02-25T13:29:02.776Z,0.62
2019-02-25T13:31:31.026Z,0.90
2019-02-25T13:34:00.404Z,0.82
2019-02-25T13:36:28.616Z,0.70
2019-02-25T13:38:56.843Z,2.45
2019-02-25T13:41:25.319Z,1.27
2019-02-25T13:43:53.506Z,0.62
2019-02-25T13:46:21.835Z,0.75
2019-02-25T13:48:50.066Z,1.87
2019-02-25T13:51:18.261Z,2.55
2019-02-25T13:53:46.447Z,1.10
2019-02-25T13:56:14.803Z,1.02
2019-02-25T13:58:43.435Z,3.80
2019-02-25T14:01:13.091Z,0.80
2019-02-25T14:03:41.452Z,0.80
2019-02-25T14:06:09.917Z,1.60
2019-02-25T14:08:38.071Z,1.32
2019-02-25T14:11:06.405Z,0.78
2019-02-25T14:13:34.613Z,2.62
2019-02-25T14:16:02.934Z,1.40
2019-02-25T14:18:31.303Z,1.07
2019-02-25T14:20:59.581Z,1.52
2019-02-25T14:23:27.910Z,1.42
2019-02-25T14:25:58.799Z,2.67
2019-02-25T14:28:26.425Z,0.90
2019-02-25T14:30:54.839Z,1.70
2019-02-25T14:33:23.694Z,1.30
2019-02-25T14:35:53.098Z,2.92
2019-02-25T14:38:23.248Z,2.08
2019-02-25T14:40:53.851Z,2.20
2019-02-25T14:45:53.967Z,4.28
2019-02-25T14:50:49.661Z,2.25
2019-02-25T14:53:17.906Z,2.83
2019-02-25T14:55:47.781Z,3.75
2019-02-25T15:00:45.825Z,5.03
2019-02-25T15:03:14.194Z,3.20
2019-02-25T15:05:42.766Z,5.55
2019-02-25T15:08:11.300Z,3.42
2019-02-25T15:10:40.784Z,4.33
2019-02-25T15:13:10.598Z,4.97
2019-02-25T15:15:41.129Z,3.87
2019-02-25T15:18:09.908Z,5.05
2019-02-25T15:20:38.222Z,4.50
2019-02-25T15:23:07.507Z,4.62
2019-02-25T15:25:36.593Z,4.47
2019-02-25T15:28:09.365Z,3.50
2019-02-25T15:30:35.698Z,2.22
2019-02-25T15:33:03.911Z,2.30
2019-02-25T15:35:34.576Z,5.03
2019-02-25T15:38:02.023Z,5.42
2019-02-25T15:40:30.290Z,5.33
2019-02-25T15:43:03.352Z,3.52
2019-02-25T15:45:35.002Z,2.98
2019-02-25T15:48:03.475Z,4.45
2019-02-25T15:50:32.086Z,6.62
2019-02-25T15:53:02.791Z,8.60
2019-02-25T15:55:31.090Z,4.15
2019-02-25T15:57:59.327Z,5.35
2019-02-25T16:00:30.048Z,6.95
2019-02-25T16:02:58.985Z,7.33
2019-02-25T16:05:29.522Z,3.55
2019-02-25T16:08:00.664Z,7.12
2019-02-25T16:10:28.569Z,4.15
2019-02-25T16:12:57.762Z,7.37
2019-02-25T16:15:27.236Z,7.05
2019-02-25T16:17:56.403Z,6.70
2019-02-25T16:20:25.506Z,6.50
2019-02-25T16:22:56.349Z,4.67
2019-02-25T16:25:25.243Z,9.23
2019-02-25T16:27:54.239Z,3.85
2019-02-25T16:30:25.799Z,7.15
2019-02-25T16:32:53.659Z,3.90
2019-02-25T16:35:21.994Z,9.93
2019-02-25T16:37:50.754Z,8.58
2019-02-25T16:40:20.256Z,7.47
2019-02-25T16:42:54.991Z,3.92
2019-02-25T16:45:22.043Z,8.48
2019-02-25T16:47:50.267Z,6.30
2019-02-25T16:50:19.282Z,4.83
2019-02-25T16:52:49.364Z,8.05
2019-02-25T16:55:19.979Z,6.93
2019-02-25T16:57:48.226Z,7.87
2019-02-25T17:00:17.516Z,10.78
2019-02-25T17:02:47.733Z,11.50
2019-02-25T17:05:15.810Z,4.45
2019-02-25T17:07:44.716Z,8.85
2019-02-25T17:10:16.143Z,6.97
2019-02-25T17:12:45.707Z,5.90
2019-02-25T17:15:15.896Z,4.05
2019-02-25T17:17:44.087Z,3.05
2019-02-25T17:20:14.022Z,3.30
2019-02-25T17:22:42.417Z,4.67
2019-02-25T17:25:12.086Z,3.17
2019-02-25T17:27:40.945Z,5.47
2019-02-25T17:30:15.191Z,4.00
2019-02-25T17:32:44.135Z,3.50
2019-02-25T17:35:14.994Z,6.45
2019-02-25T17:37:43.552Z,4.83
2019-02-25T17:40:13.122Z,4.33
2019-02-25T17:42:41.615Z,6.25
2019-02-25T17:45:12.670Z,5.12
2019-02-25T17:47:41.932Z,3.87
2019-02-25T17:50:11.852Z,8.85
2019-02-25T17:52:42.535Z,6.05
2019-02-25T17:55:12.970Z,8.20
2019-02-25T17:57:41.246Z,7.60
2019-02-25T18:02:57.167Z,7.35
2019-02-25T18:05:26.177Z,9.05
2019-02-25T18:07:54.500Z,8.05
2019-02-25T18:10:24.724Z,8.75
2019-02-25T18:12:54.563Z,8.13
2019-02-25T18:15:26.172Z,19.12
2019-02-25T18:17:55.480Z,20.30
2019-02-25T18:20:24.413Z,36.95
2019-02-25T18:22:52.803Z,17.17
2019-02-25T18:25:21.147Z,11.43
2019-02-25T18:27:50.470Z,10.15
2019-02-25T18:30:20.979Z,11.05
2019-02-25T18:32:50.468Z,8.73
2019-02-25T18:35:21.197Z,9.40
2019-02-25T18:37:50.012Z,11.08
2019-02-25T18:40:20.681Z,9.28
2019-02-25T18:45:18.433Z,8.03
2019-02-25T18:47:50.385Z,7.67
2019-02-25T18:50:21.760Z,11.33
2019-02-25T18:52:52.908Z,5.95
2019-02-25T18:55:23.268Z,10.50
2019-02-25T18:57:53.388Z,15.25
2019-02-25T19:00:29.969Z,13.48
2019-02-25T19:03:00.360Z,8.40
2019-02-25T19:05:31.453Z,7.60
2019-02-25T19:08:02.334Z,14.53
2019-02-25T19:10:31.208Z,12.23
2019-02-25T19:13:03.022Z,7.08
2019-02-25T19:15:31.838Z,12.03
2019-02-25T19:18:00.769Z,8.18
2019-02-25T19:20:29.717Z,7.78
2019-02-25T19:23:02.601Z,9.13
2019-02-25T19:25:29.588Z,10.50
2019-02-25T19:27:58.757Z,10.68
2019-02-25T19:30:29.775Z,10.95
2019-02-25T19:33:09.057Z,6.75
2019-02-25T19:38:01.238Z,10.82
2019-02-25T19:40:29.409Z,13.75
2019-02-25T19:42:59.537Z,19.92
2019-02-25T19:45:28.016Z,23.22
2019-02-25T19:47:58.365Z,21.23
2019-02-25T19:52:56.042Z,24.85
2019-02-25T19:55:24.450Z,15.32
2019-02-25T19:57:52.906Z,15.80
2019-02-25T20:00:30.267Z,15.20
2019-02-25T20:03:05.218Z,16.27
2019-02-25T20:05:29.315Z,18.27
2019-02-25T20:07:57.871Z,11.15
2019-02-25T20:10:26.094Z,10.82
2019-02-25T20:12:55.616Z,15.18
2019-02-25T20:15:25.238Z,14.10
2019-02-25T20:17:55.265Z,14.30
2019-02-25T20:23:17.323Z,9.55
2019-02-25T20:25:48.781Z,16.80
2019-02-25T20:28:18.643Z,10.78
2019-02-25T20:30:48.960Z,12.68
2019-02-25T20:33:17.631Z,12.25
2019-02-25T20:35:51.034Z,8.75
2019-02-25T20:38:16.851Z,14.60
2019-02-25T20:40:50.817Z,11.63
2019-02-25T20:43:21.267Z,18.40
2019-02-25T20:45:52.103Z,12.70
2019-02-25T20:48:19.129Z,11.18
2019-02-25T20:50:48.398Z,12.73
2019-02-25T20:53:17.007Z,15.53
2019-02-25T20:55:45.548Z,14.65
2019-02-25T20:58:16.256Z,9.75
2019-02-25T21:00:46.491Z,12.23
2019-02-25T21:05:46.660Z,15.35
2019-02-25T21:08:16.911Z,15.60
2019-02-25T21:10:46.049Z,14.28
2019-02-25T21:13:14.456Z,14.15
2019-02-25T21:15:45.291Z,12.07
2019-02-25T21:18:13.398Z,11.48
2019-02-25T21:20:43.041Z,11.97
2019-02-25T21:23:12.547Z,15.90
2019-02-25T21:25:41.131Z,12.37
2019-02-25T21:28:11.253Z,12.85
2019-02-25T21:30:41.344Z,10.45
2019-02-25T21:33:13.335Z,14.33
2019-02-25T21:35:40.209Z,10.95
2019-02-25T21:38:09.461Z,15.68
2019-02-25T21:40:37.882Z,12.00
2019-02-25T21:43:06.275Z,11.83
2019-02-25T21:45:34.584Z,16.85
2019-02-25T21:48:04.789Z,14.65
2019-02-25T21:50:34.040Z,11.88
2019-02-25T21:53:04.910Z,15.70
2019-02-25T21:55:34.790Z,12.30
2019-02-25T21:58:04.849Z,17.12
2019-02-25T22:00:35.133Z,15.60
2019-02-25T22:03:04.493Z,17.57
2019-02-25T22:05:32.542Z,9.23
2019-02-25T22:08:02.274Z,10.55
2019-02-25T22:10:34.054Z,13.32
2019-02-25T22:13:04.382Z,13.22
2019-02-25T22:15:31.122Z,12.75
2019-02-25T22:17:59.344Z,14.98
2019-02-25T22:20:27.522Z,17.12
2019-02-25T22:22:57.434Z,22.15
2019-02-25T22:25:25.738Z,15.98
2019-02-25T22:27:53.965Z,10.98
2019-02-25T22:30:22.238Z,12.20
2019-02-25T22:32:50.638Z,14.95
2019-02-25T22:35:19.070Z,12.68
2019-02-25T22:37:49.623Z,12.33
2019-02-25T22:40:17.565Z,15.38
2019-02-25T22:42:49.830Z,14.65
2019-02-25T22:45:18.884Z,13.40
2019-02-25T22:47:47.043Z,13.45
2019-02-25T22:50:15.442Z,12.53
2019-02-25T22:52:43.535Z,12.33
2019-02-25T22:55:12.932Z,12.65
2019-02-25T22:57:43.468Z,14.58
2019-02-25T23:00:52.722Z,11.40
2019-02-25T23:03:24.571Z,10.88
2019-02-25T23:05:53.414Z,9.75
2019-02-25T23:08:23.413Z,13.83
2019-02-25T23:10:52.296Z,12.23
2019-02-25T23:13:22.686Z,19.27
2019-02-25T23:15:51.721Z,17.37
2019-02-25T23:18:22.894Z,17.32
2019-02-25T23:20:54.454Z,9.95
2019-02-25T23:23:23.466Z,16.50
2019-02-25T23:25:51.406Z,14.75
2019-02-25T23:28:22.919Z,13.08
2019-02-25T23:30:50.846Z,24.52
2019-02-25T23:33:21.832Z,15.65
2019-02-25T23:35:49.717Z,16.93
2019-02-25T23:38:18.999Z,11.97
2019-02-25T23:40:47.238Z,14.03
2019-02-25T23:43:16.832Z,12.25
2019-02-25T23:45:46.381Z,14.00
2019-02-25T23:48:14.565Z,12.23
2019-02-25T23:50:42.839Z,12.53
2019-02-25T23:53:11.005Z,10.82
2019-02-25T23:55:39.135Z,9.35
2019-02-25T23:58:10.267Z,13.68
